WetterOnline ( https://www.wetteronline.de )

Wetter aktuell Bonn

Aktuelles Wetter: Königswinter-Heiderhof (147m)

6-stündlich | Neueste Meldungen
Ortszeit Temperatur Wetter
Do, 22.04. 20:00 10.5° C leicht bewölkt
Do, 22.04. 14:00 9.6° C leicht bewölkt
Do, 22.04. 8:00 2.8° C bedeckt
Do, 22.04. 2:00 5.5° C wolkig
Mi, 21.04. 20:00 14.1° C wolkenlos
Mi, 21.04. 14:00 15.0° C leicht bewölkt
Mi, 21.04. 8:00 6.7° C wolkenlos
Mi, 21.04. 2:00 7.3° C wolkenlos
Ortszeit Temperatur Wetter
Fr, 23.04. 0:00 6.7° C wolkenlos
Do, 22.04. 23:50 6.7° C wolkenlos
Do, 22.04. 23:40 6.8° C wolkenlos
Do, 22.04. 23:30 7.2° C wolkenlos
Do, 22.04. 23:20 7.2° C wolkenlos
Do, 22.04. 23:10 7.2° C fast wolkenlos
Do, 22.04. 23:00 7.6° C leicht bewölkt
Do, 22.04. 22:30 8.0° C fast wolkenlos
Do, 22.04. 22:00 8.1° C wolkenlos
Do, 22.04. 21:30 8.8° C fast wolkenlos
Do, 22.04. 21:00 9.3° C fast wolkenlos
Ortszeit Relative Feuchte Sichtweite
Do, 22.04. 20:00 47% 30 km
Do, 22.04. 14:00 52% 40 km
Do, 22.04. 8:00 78% 30 km
Do, 22.04. 2:00 67% 50 km
Mi, 21.04. 20:00 50% 30 km
Mi, 21.04. 14:00 58% 17 km
Mi, 21.04. 8:00 85% 9 km
Mi, 21.04. 2:00 78% 17 km
Ortszeit Relative Feuchte Sichtweite
Fr, 23.04. 0:00 64% 40 km
Do, 22.04. 23:50 64% -
Do, 22.04. 23:40 63% -
Do, 22.04. 23:30 62% 45 km
Do, 22.04. 23:20 62% -
Do, 22.04. 23:10 62% -
Do, 22.04. 23:00 61% 40 km
Do, 22.04. 22:30 59% 40 km
Do, 22.04. 22:00 58% 45 km
Do, 22.04. 21:30 56% 35 km
Do, 22.04. 21:00 54% 35 km
Ortszeit Niederschlagsmenge Niederschlagsart
Do, 22.04. 20:00 0.0 l/m2 in 12 Std. -
Do, 22.04. 14:00 0.0 l/m2 in 6 Std. -
Do, 22.04. 8:00 0.0 l/m2 in 12 Std. -
Do, 22.04. 2:00 0.0 l/m2 in 6 Std. -
Mi, 21.04. 20:00 0.1 l/m2 in 12 Std. -
Mi, 21.04. 14:00 0.1 l/m2 in 6 Std. Regen
Mi, 21.04. 8:00 0.0 l/m2 in 12 Std. -
Mi, 21.04. 2:00 0.0 l/m2 in 6 Std. -
Ortszeit Niederschlagsmenge Niederschlagsart
Fr, 23.04. 0:00 0.0 l/m2 in 1 Std. -
Do, 22.04. 23:50 keine Meldung -
Do, 22.04. 23:40 keine Meldung -
Do, 22.04. 23:30 0.0 l/m2 in 1 Std. -
Do, 22.04. 23:20 keine Meldung -
Do, 22.04. 23:10 keine Meldung -
Do, 22.04. 23:00 0.0 l/m2 in 1 Std. -
Do, 22.04. 22:30 0.0 l/m2 in 1 Std. -
Do, 22.04. 22:00 0.0 l/m2 in 1 Std. -
Do, 22.04. 21:30 0.0 l/m2 in 1 Std. -
Do, 22.04. 21:00 0.0 l/m2 in 1 Std. -
Ortszeit Stärke Spitze Richtung
km/h Bft. km/h Grad Sektor
Do, 22.04. 20:00 11 2 32 300° NW
Do, 22.04. 14:00 13 3 28 320° NW
Do, 22.04. 8:00 6 1 26 10° N
Do, 22.04. 2:00 14 3 32 360° N
Mi, 21.04. 20:00 13 3 30 320° NW
Mi, 21.04. 14:00 9 2 17 320° NW
Mi, 21.04. 8:00 7 2 17 230° SW
Mi, 21.04. 2:00 6 1 17 210° SW
Ortszeit Stärke Spitze Richtung
km/h Bft. km/h Grad Sektor
Fr, 23.04. 0:00 6 1 15 340° N
Do, 22.04. 23:50 6 1 - 340° N
Do, 22.04. 23:40 6 1 - 340° N
Do, 22.04. 23:30 7 2 14 340° N
Do, 22.04. 23:20 7 2 - 340° N
Do, 22.04. 23:10 9 2 - 340° N
Do, 22.04. 23:00 7 2 14 330° NW
Do, 22.04. 22:30 7 2 13 310° NW
Do, 22.04. 22:00 7 2 18 310° NW
Do, 22.04. 21:30 7 2 17 310° NW
Do, 22.04. 21:00 7 2 18 310° NW
Ortszeit Untergrenze Bedeckung Gattung
total tief tief mittel hoch
Do, 22.04. 20:00 10500 m 6/8 0/8 - - -
Do, 22.04. 14:00 6600 m 4/8 3/8 - - -
Do, 22.04. 8:00 6600 m 8/8 8/8 - - -
Do, 22.04. 2:00 7200 m 8/8 0/8 - - -
Mi, 21.04. 20:00 - 0/8 0/8 - - -
Mi, 21.04. 14:00 2100 m 3/8 3/8 - - -
Mi, 21.04. 8:00 - 0/8 0/8 - - -
Mi, 21.04. 2:00 - 0/8 0/8 - - -
Ortszeit Bedeckungsgrad in Achtel und Wolkenuntergrenze
Fr, 23.04. 0:00 keine Wolken
Do, 22.04. 23:50 keine Wolken
Do, 22.04. 23:40 keine Wolken
Do, 22.04. 23:30 keine Wolken
Do, 22.04. 23:20 keine Wolken
Do, 22.04. 23:10 1(10500m)
Do, 22.04. 23:00 3(10500m)
Do, 22.04. 22:30 2(10500m)
Do, 22.04. 22:00 2(10500m)
Do, 22.04. 21:30 1(10500m)
Do, 22.04. 21:00 1(10500m)
Ortszeit Luftdruck NN (hPa) Tendenz (hPa in 3 Std.)
Do, 22.04. 20:00 1025 + 0,2
Do, 22.04. 14:00 1026 - 0,1
Do, 22.04. 8:00 1025 + 1,2
Do, 22.04. 2:00 1022 + 2,0
Mi, 21.04. 20:00 1017 + 0,5
Mi, 21.04. 14:00 1017 - 0,3
Mi, 21.04. 8:00 1017 + 0,4
Mi, 21.04. 2:00 1017 - 0,1
Ortszeit Luftdruck NN (hPa) Tendenz (hPa in 3 Std.)
Fr, 23.04. 0:00 1027 + 0,8
Do, 22.04. 23:50 1027 keine Meldung
Do, 22.04. 23:40 1027 keine Meldung
Do, 22.04. 23:30 1027 + 1,2
Do, 22.04. 23:20 1027 keine Meldung
Do, 22.04. 23:10 1027 keine Meldung
Do, 22.04. 23:00 1027 + 1,4
Do, 22.04. 22:30 1027 + 1,3
Do, 22.04. 22:00 1027 + 1,2
Do, 22.04. 21:30 1026 + 1,0
Do, 22.04. 21:00 1026 + 0,8
Ortszeit Schneehöhe (cm)
Do, 22.04. 20:00 0
Do, 22.04. 14:00 0
Do, 22.04. 8:00 0
Do, 22.04. 2:00 0
Mi, 21.04. 20:00 0
Mi, 21.04. 14:00 0
Mi, 21.04. 8:00 0
Mi, 21.04. 2:00 0
Ortszeit Schneehöhe (cm)
Fr, 23.04. 0:00 0
Do, 22.04. 23:50 0
Do, 22.04. 23:40 0
Do, 22.04. 23:30 0
Do, 22.04. 23:20 0
Do, 22.04. 23:10 0
Do, 22.04. 23:00 0
Do, 22.04. 22:30 0
Do, 22.04. 22:00 0
Do, 22.04. 21:30 0
Do, 22.04. 21:00 0
Link zu dieser Seite / Seite empfehlen

Das Wetter in ...